createdAt,value
2023-03-16T00:02:02.668Z,76.83
2023-03-16T00:04:30.667Z,77.11
2023-03-16T00:06:58.324Z,77.36
2023-03-16T00:09:31.064Z,77.26
2023-03-16T00:11:58.929Z,77.21
2023-03-16T00:14:26.550Z,77.36
2023-03-16T00:16:53.396Z,77.60
2023-03-16T00:19:19.874Z,77.38
2023-03-16T00:21:46.366Z,77.95
2023-03-16T00:24:13.317Z,78.01
2023-03-16T00:26:39.820Z,78.13
2023-03-16T00:29:06.268Z,77.94
2023-03-16T00:31:33.955Z,78.20
2023-03-16T00:34:02.810Z,78.42
2023-03-16T00:36:30.389Z,78.60
2023-03-16T00:38:56.891Z,78.74
2023-03-16T00:41:23.363Z,78.74
2023-03-16T00:43:51.806Z,79.33
2023-03-16T00:46:18.406Z,79.18
2023-03-16T00:48:47.508Z,79.51
2023-03-16T00:51:17.198Z,79.62
2023-03-16T00:53:46.664Z,79.95
2023-03-16T00:56:13.847Z,79.91
2023-03-16T00:58:43.072Z,80.09
2023-03-16T01:01:14.004Z,80.10
2023-03-16T01:03:41.219Z,80.37
2023-03-16T01:06:13.847Z,80.43
2023-03-16T01:08:40.994Z,80.68
2023-03-16T01:11:13.633Z,81.04
2023-03-16T01:13:40.610Z,80.93
2023-03-16T01:16:08.028Z,80.79
2023-03-16T01:18:34.707Z,81.38
2023-03-16T01:21:06.399Z,81.24
2023-03-16T01:23:37.401Z,81.74
2023-03-16T01:26:07.892Z,81.52
2023-03-16T01:28:34.815Z,81.65
2023-03-16T01:31:14.276Z,82.16
2023-03-16T01:33:42.330Z,82.12
2023-03-16T01:36:17.415Z,82.03
2023-03-16T01:38:44.771Z,82.03
2023-03-16T01:41:14.241Z,82.36
2023-03-16T01:43:41.689Z,82.50
2023-03-16T01:46:08.225Z,82.95
2023-03-16T01:48:49.936Z,83.01
2023-03-16T01:51:22.410Z,83.03
2023-03-16T01:53:53.444Z,83.18
2023-03-16T01:56:29.572Z,83.46
2023-03-16T01:58:59.468Z,83.54
2023-03-16T02:01:29.494Z,83.78
2023-03-16T02:04:07.526Z,83.77
2023-03-16T02:06:35.761Z,83.94
2023-03-16T02:09:02.748Z,84.20
2023-03-16T02:11:30.079Z,83.74
2023-03-16T02:14:02.903Z,84.17
2023-03-16T02:16:29.475Z,84.36
2023-03-16T02:18:56.040Z,84.36
2023-03-16T02:21:29.703Z,84.52
2023-03-16T02:23:56.304Z,84.38
2023-03-16T02:26:28.880Z,84.59
2023-03-16T02:29:17.136Z,84.89
2023-03-16T02:31:44.763Z,84.49
2023-03-16T02:34:14.434Z,84.96
2023-03-16T02:36:43.764Z,84.96
2023-03-16T02:39:10.260Z,85.54
2023-03-16T02:41:37.081Z,85.65
2023-03-16T02:44:14.764Z,85.29
2023-03-16T02:46:43.499Z,85.70
2023-03-16T02:49:45.845Z,86.34
2023-03-16T02:52:13.059Z,86.78
2023-03-16T02:54:39.838Z,86.79
2023-03-16T02:57:06.429Z,86.92
2023-03-16T02:59:33.056Z,87.14
2023-03-16T03:01:59.558Z,87.45
2023-03-16T03:04:26.229Z,87.78
2023-03-16T03:06:52.738Z,88.02
2023-03-16T03:09:19.695Z,88.41
2023-03-16T03:11:50.682Z,88.04
2023-03-16T03:14:17.304Z,88.57
2023-03-16T03:16:46.982Z,88.57
2023-03-16T03:19:13.854Z,88.46
2023-03-16T03:21:41.211Z,88.82
2023-03-16T03:24:08.847Z,89.13
2023-03-16T03:26:35.759Z,88.88
2023-03-16T03:29:02.418Z,89.45
2023-03-16T03:31:28.993Z,89.61
2023-03-16T03:33:56.675Z,89.93
2023-03-16T03:36:23.227Z,90.08
2023-03-16T03:38:49.809Z,90.28
2023-03-16T03:41:16.537Z,90.98
2023-03-16T03:43:44.427Z,91.41
2023-03-16T03:46:10.932Z,91.67
2023-03-16T03:48:37.453Z,92.03
2023-03-16T03:51:05.556Z,92.22
2023-03-16T03:53:32.676Z,92.27
2023-03-16T03:55:59.146Z,92.81
2023-03-16T03:58:25.580Z,93.33
2023-03-16T04:00:52.296Z,93.92
2023-03-16T04:03:18.837Z,94.17
2023-03-16T04:05:45.353Z,94.44
2023-03-16T04:08:11.964Z,95.12
2023-03-16T04:10:38.586Z,95.24
2023-03-16T04:13:05.197Z,95.77
2023-03-16T04:15:32.894Z,96.53
2023-03-16T04:18:00.027Z,96.46
2023-03-16T04:20:26.857Z,96.39
2023-03-16T04:22:58.419Z,96.80
2023-03-16T04:25:26.726Z,97.39
2023-03-16T04:27:53.568Z,97.09
2023-03-16T04:30:20.300Z,97.77
2023-03-16T04:32:46.859Z,97.99
2023-03-16T04:35:15.799Z,98.19
2023-03-16T04:37:42.444Z,98.35
2023-03-16T04:40:16.004Z,98.65
2023-03-16T04:42:44.145Z,99.00
2023-03-16T04:45:12.263Z,98.77
2023-03-16T04:47:39.733Z,99.01
2023-03-16T04:50:07.635Z,98.97
2023-03-16T04:52:34.187Z,98.98
2023-03-16T04:55:01.376Z,99.49
2023-03-16T04:57:27.954Z,99.08
2023-03-16T04:59:54.462Z,99.37
2023-03-16T05:02:21.049Z,99.03
2023-03-16T05:04:48.380Z,99.07
2023-03-16T05:07:14.890Z,99.15
2023-03-16T05:09:41.970Z,99.18
2023-03-16T05:12:09.051Z,98.73
2023-03-16T05:14:36.145Z,99.17
2023-03-16T05:17:03.872Z,98.91
2023-03-16T05:19:30.575Z,98.58
2023-03-16T05:21:57.723Z,98.93
2023-03-16T05:24:24.578Z,98.59
2023-03-16T05:26:51.055Z,98.94
2023-03-16T05:29:17.630Z,98.89
2023-03-16T05:31:46.802Z,99.07
2023-03-16T05:34:13.645Z,99.03
2023-03-16T05:36:40.149Z,98.85
2023-03-16T05:39:08.475Z,99.27
2023-03-16T05:41:35.311Z,98.89
2023-03-16T05:44:02.560Z,98.90
2023-03-16T05:46:29.121Z,98.86
2023-03-16T05:48:55.727Z,99.10
2023-03-16T05:51:22.210Z,99.31
2023-03-16T05:53:48.996Z,99.37
2023-03-16T05:56:15.543Z,99.75
2023-03-16T05:58:42.358Z,99.73
2023-03-16T06:01:09.618Z,99.85
2023-03-16T06:03:36.708Z,100.00
2023-03-16T06:06:03.473Z,100.00
2023-03-16T06:08:29.977Z,100.00
2023-03-16T06:10:56.512Z,100.00
2023-03-16T06:13:23.132Z,100.00
2023-03-16T06:15:49.952Z,100.00
2023-03-16T06:18:16.528Z,100.00
2023-03-16T06:20:43.450Z,100.00
2023-03-16T06:23:09.989Z,100.00
2023-03-16T06:25:38.362Z,100.00
2023-03-16T06:28:07.389Z,100.00
2023-03-16T06:30:33.912Z,100.00
2023-03-16T06:33:02.132Z,100.00
2023-03-16T06:35:28.764Z,100.00
2023-03-16T06:37:55.264Z,100.00
2023-03-16T06:40:22.010Z,100.00
2023-03-16T06:42:48.640Z,100.00
2023-03-16T06:45:16.716Z,100.00
2023-03-16T06:47:44.137Z,100.00
2023-03-16T06:50:11.868Z,100.00
2023-03-16T06:52:38.686Z,100.00
2023-03-16T06:55:05.909Z,100.00
2023-03-16T06:57:32.629Z,100.00
2023-03-16T06:59:59.191Z,100.00
2023-03-16T07:02:25.665Z,100.00
2023-03-16T07:04:52.283Z,100.00
2023-03-16T07:07:19.384Z,100.00
2023-03-16T07:09:46.259Z,100.00
2023-03-16T07:12:13.825Z,100.00
2023-03-16T07:14:40.511Z,100.00
2023-03-16T07:17:07.150Z,100.00
2023-03-16T07:19:33.811Z,100.00
2023-03-16T07:22:00.462Z,100.00
2023-03-16T07:24:27.189Z,100.00
2023-03-16T07:26:54.052Z,99.77
2023-03-16T07:29:20.575Z,99.38
2023-03-16T07:31:47.287Z,99.41
2023-03-16T07:34:14.007Z,99.42
2023-03-16T07:36:40.788Z,99.85
2023-03-16T07:39:07.370Z,99.71
2023-03-16T07:41:33.904Z,99.56
2023-03-16T07:44:00.718Z,100.00
2023-03-16T07:46:27.437Z,99.88
2023-03-16T07:48:54.041Z,100.00
2023-03-16T07:51:21.439Z,99.83
2023-03-16T07:53:48.114Z,100.00
2023-03-16T07:56:14.578Z,100.00
2023-03-16T07:58:41.961Z,100.00
2023-03-16T08:01:10.925Z,99.72
2023-03-16T08:03:39.033Z,100.00
2023-03-16T08:06:05.796Z,100.00
2023-03-16T08:08:33.008Z,100.00
2023-03-16T08:10:59.556Z,100.00
2023-03-16T08:13:27.697Z,100.00
2023-03-16T08:16:02.018Z,100.00
2023-03-16T08:18:32.477Z,100.00
2023-03-16T08:20:59.153Z,100.00
2023-03-16T08:23:26.087Z,99.64
2023-03-16T08:25:57.761Z,99.28
2023-03-16T08:28:25.930Z,99.10
2023-03-16T08:30:54.011Z,98.86
2023-03-16T08:33:22.963Z,98.66
2023-03-16T08:35:50.762Z,98.75
2023-03-16T08:38:17.522Z,98.17
2023-03-16T08:40:49.950Z,98.04
2023-03-16T08:43:18.071Z,97.90
2023-03-16T08:45:49.218Z,97.31
2023-03-16T08:48:15.851Z,97.22
2023-03-16T08:50:43.327Z,97.19
2023-03-16T08:53:14.383Z,96.54
2023-03-16T08:55:41.859Z,95.63
2023-03-16T08:58:10.527Z,95.39
2023-03-16T09:00:37.621Z,94.39
2023-03-16T09:03:04.768Z,93.91
2023-03-16T09:05:31.618Z,93.83
2023-03-16T09:07:58.939Z,93.47
2023-03-16T09:10:27.832Z,93.77
2023-03-16T09:12:54.510Z,93.40
2023-03-16T09:15:21.856Z,93.15
2023-03-16T09:17:48.500Z,92.63
2023-03-16T09:20:26.129Z,92.24
2023-03-16T09:22:55.040Z,91.78
2023-03-16T09:25:22.369Z,92.21
2023-03-16T09:27:48.881Z,91.48
2023-03-16T09:30:17.046Z,91.72
2023-03-16T09:32:43.706Z,91.48
2023-03-16T09:35:11.992Z,91.95
2023-03-16T09:37:45.104Z,91.55
2023-03-16T09:40:29.311Z,91.52
2023-03-16T09:43:14.487Z,91.27
2023-03-16T09:45:53.181Z,90.95
2023-03-16T09:48:21.050Z,91.43
2023-03-16T09:50:49.752Z,90.46
2023-03-16T09:53:29.688Z,89.99
2023-03-16T09:56:04.195Z,89.04
2023-03-16T09:58:32.518Z,89.28
2023-03-16T10:01:03.212Z,89.15
2023-03-16T10:03:51.122Z,88.33
2023-03-16T10:06:17.963Z,87.49
2023-03-16T10:08:51.526Z,86.72
2023-03-16T10:11:26.809Z,86.28
2023-03-16T10:14:18.818Z,85.03
2023-03-16T10:16:52.714Z,84.47
2023-03-16T10:19:32.805Z,83.41
2023-03-16T10:22:02.706Z,83.77
2023-03-16T10:24:44.257Z,81.31
2023-03-16T10:27:21.200Z,82.13
2023-03-16T10:29:47.782Z,80.89
2023-03-16T10:32:17.390Z,80.93
2023-03-16T10:34:48.672Z,80.58
2023-03-16T10:37:15.273Z,80.04
2023-03-16T10:39:43.253Z,79.57
2023-03-16T10:42:21.429Z,78.41
2023-03-16T10:44:48.513Z,77.44
2023-03-16T10:47:30.043Z,78.18
2023-03-16T10:49:56.850Z,76.62
2023-03-16T10:52:34.910Z,76.07
2023-03-16T10:55:15.943Z,75.16
2023-03-16T10:57:47.921Z,73.34
2023-03-16T11:00:21.212Z,73.38
2023-03-16T11:02:54.339Z,73.32
2023-03-16T11:05:28.509Z,73.08
2023-03-16T11:08:16.560Z,71.50
2023-03-16T11:10:55.581Z,71.79
2023-03-16T11:13:24.747Z,72.52
2023-03-16T11:16:05.307Z,71.68
2023-03-16T11:18:37.295Z,71.60
2023-03-16T11:21:13.048Z,70.53
2023-03-16T11:23:49.678Z,70.56
2023-03-16T11:26:28.718Z,70.61
2023-03-16T11:29:09.502Z,71.34
2023-03-16T11:31:53.958Z,70.95
2023-03-16T11:34:31.557Z,71.14
2023-03-16T11:37:16.935Z,71.06
2023-03-16T11:39:46.496Z,70.57
2023-03-16T11:42:24.201Z,70.97
2023-03-16T11:45:16.468Z,69.87
2023-03-16T11:47:55.253Z,69.49
2023-03-16T11:50:33.693Z,69.36
2023-03-16T11:53:13.374Z,68.00
2023-03-16T11:55:59.900Z,68.81
2023-03-16T11:58:53.062Z,68.51
2023-03-16T12:02:03.076Z,67.74
2023-03-16T12:05:09.723Z,68.04
2023-03-16T12:08:39.178Z,67.00
2023-03-16T12:11:10.311Z,65.75
2023-03-16T12:13:55.035Z,66.06
2023-03-16T12:16:54.474Z,66.29
2023-03-16T12:19:41.798Z,64.47
2023-03-16T12:22:24.108Z,64.20
2023-03-16T12:24:50.770Z,63.53
2023-03-16T12:27:25.718Z,62.94
2023-03-16T12:30:35.660Z,62.95
2023-03-16T12:33:16.126Z,60.28
2023-03-16T12:35:49.288Z,60.12
2023-03-16T12:38:43.926Z,59.03
2023-03-16T12:41:41.198Z,58.44
2023-03-16T12:44:58.622Z,58.17
2023-03-16T12:47:49.778Z,56.22
2023-03-16T12:50:18.888Z,56.24
2023-03-16T12:52:51.814Z,55.46
2023-03-16T12:55:28.144Z,56.87
2023-03-16T12:58:05.108Z,56.34
2023-03-16T13:00:40.776Z,55.42
2023-03-16T13:03:15.609Z,55.55
2023-03-16T13:05:55.617Z,55.87
2023-03-16T13:08:23.501Z,55.19
2023-03-16T13:11:05.540Z,55.17
2023-03-16T13:13:34.271Z,53.35
2023-03-16T13:16:23.648Z,53.30
2023-03-16T13:18:52.560Z,52.73
2023-03-16T13:21:35.271Z,53.96
2023-03-16T13:24:20.172Z,52.48
2023-03-16T13:26:49.611Z,52.12
2023-03-16T13:29:27.429Z,52.50
2023-03-16T13:31:58.040Z,51.20
2023-03-16T13:34:44.743Z,50.77
2023-03-16T13:37:15.060Z,51.13
2023-03-16T13:39:41.691Z,50.64
2023-03-16T13:42:22.318Z,50.20
2023-03-16T13:44:52.658Z,49.78
2023-03-16T13:47:20.654Z,50.44
2023-03-16T13:49:50.018Z,49.48
2023-03-16T13:52:25.505Z,49.98
2023-03-16T13:54:53.212Z,49.63
2023-03-16T13:57:24.171Z,49.51
2023-03-16T13:59:50.732Z,47.92
2023-03-16T14:02:19.579Z,48.07
2023-03-16T14:04:47.064Z,48.18
2023-03-16T14:07:20.094Z,47.60
2023-03-16T14:09:46.782Z,47.06
2023-03-16T14:12:14.996Z,46.97
2023-03-16T14:14:42.125Z,45.84
2023-03-16T14:17:14.936Z,46.79
2023-03-16T14:19:57.700Z,45.60
2023-03-16T14:22:34.726Z,45.57
2023-03-16T14:25:04.792Z,45.97
2023-03-16T14:27:42.738Z,46.24
2023-03-16T14:30:25.958Z,46.34
2023-03-16T14:33:33.299Z,46.40
2023-03-16T14:36:08.104Z,45.67
2023-03-16T14:38:36.899Z,44.31
2023-03-16T14:41:13.378Z,44.63
2023-03-16T14:43:47.944Z,43.62
2023-03-16T14:46:22.202Z,44.23
2023-03-16T14:48:50.571Z,44.98
2023-03-16T14:51:17.079Z,45.50
2023-03-16T14:53:44.796Z,45.29
2023-03-16T14:56:13.667Z,45.43
2023-03-16T14:58:41.208Z,45.70
2023-03-16T15:01:16.202Z,46.04
2023-03-16T15:03:43.773Z,46.18
2023-03-16T15:06:10.652Z,46.90
2023-03-16T15:08:44.494Z,46.64
2023-03-16T15:11:11.588Z,46.64
2023-03-16T15:13:41.343Z,47.18
2023-03-16T15:16:11.889Z,47.18
2023-03-16T15:18:41.834Z,48.38
2023-03-16T15:21:13.724Z,48.15
2023-03-16T15:23:42.839Z,47.94
2023-03-16T15:26:12.122Z,47.86
2023-03-16T15:28:38.716Z,48.61
2023-03-16T15:31:05.272Z,47.37
2023-03-16T15:33:32.189Z,48.03
2023-03-16T15:36:02.131Z,47.89
2023-03-16T15:38:34.717Z,48.95
2023-03-16T15:41:01.545Z,47.12
2023-03-16T15:43:30.186Z,47.78
2023-03-16T15:45:58.913Z,47.63
2023-03-16T15:48:26.308Z,47.25
2023-03-16T15:50:56.118Z,47.33
2023-03-16T15:53:34.065Z,47.46
2023-03-16T15:56:05.918Z,47.29
2023-03-16T15:58:35.229Z,46.99
2023-03-16T16:01:03.256Z,47.04
2023-03-16T16:03:32.195Z,47.17
2023-03-16T16:05:58.718Z,47.37
2023-03-16T16:08:25.693Z,47.44
2023-03-16T16:10:53.561Z,47.14
2023-03-16T16:13:34.058Z,47.62
2023-03-16T16:16:13.976Z,47.95
2023-03-16T16:18:43.720Z,48.20
2023-03-16T16:21:24.532Z,47.99
2023-03-16T16:23:54.417Z,47.91
2023-03-16T16:26:41.630Z,47.78
2023-03-16T16:29:23.087Z,48.96
2023-03-16T16:31:51.595Z,49.14
2023-03-16T16:34:24.525Z,49.21
2023-03-16T16:36:51.808Z,49.47
2023-03-16T16:39:18.251Z,49.96
2023-03-16T16:41:45.356Z,49.02
2023-03-16T16:44:17.518Z,49.57
2023-03-16T16:46:44.787Z,49.85
2023-03-16T16:49:30.519Z,49.96
2023-03-16T16:51:58.479Z,50.24
2023-03-16T16:54:29.793Z,50.37
2023-03-16T16:56:58.098Z,50.75
2023-03-16T16:59:36.870Z,51.41
2023-03-16T17:02:21.149Z,51.85
2023-03-16T17:04:47.826Z,52.42
2023-03-16T17:07:14.354Z,52.86
2023-03-16T17:09:41.134Z,52.97
2023-03-16T17:12:21.361Z,53.39
2023-03-16T17:14:49.639Z,53.63
2023-03-16T17:17:17.824Z,54.01
2023-03-16T17:19:46.801Z,54.06
2023-03-16T17:22:24.943Z,54.37
2023-03-16T17:24:53.040Z,54.51
2023-03-16T17:27:26.640Z,54.26
2023-03-16T17:29:54.684Z,54.51
2023-03-16T17:32:22.853Z,54.71
2023-03-16T17:34:50.947Z,54.87
2023-03-16T17:37:20.026Z,55.18
2023-03-16T17:39:46.657Z,55.56
2023-03-16T17:42:18.511Z,55.77
2023-03-16T17:44:53.062Z,56.12
2023-03-16T17:47:25.108Z,56.48
2023-03-16T17:49:51.893Z,56.55
2023-03-16T17:52:21.468Z,56.91
2023-03-16T17:54:49.809Z,57.13
2023-03-16T17:57:18.724Z,57.18
2023-03-16T17:59:46.947Z,57.38
2023-03-16T18:02:39.646Z,58.17
2023-03-16T18:05:15.708Z,58.22
2023-03-16T18:07:42.223Z,58.72
2023-03-16T18:10:14.840Z,59.17
2023-03-16T18:12:41.669Z,59.46
2023-03-16T18:15:18.651Z,59.63
2023-03-16T18:17:45.984Z,60.26
2023-03-16T18:20:33.690Z,60.66
2023-03-16T18:23:01.926Z,61.13
2023-03-16T18:25:34.500Z,61.33
2023-03-16T18:28:02.232Z,61.84
2023-03-16T18:30:29.824Z,61.88
2023-03-16T18:32:58.461Z,62.62
2023-03-16T18:35:25.294Z,62.87
2023-03-16T18:37:54.796Z,63.57
2023-03-16T18:40:23.575Z,63.86
2023-03-16T18:42:51.416Z,64.48
2023-03-16T18:45:18.150Z,64.48
2023-03-16T18:47:50.906Z,64.73
2023-03-16T18:50:28.786Z,65.77
2023-03-16T18:52:56.652Z,66.07
2023-03-16T18:55:25.423Z,66.59
2023-03-16T18:57:52.794Z,66.98
2023-03-16T19:00:22.291Z,66.96
2023-03-16T19:02:53.204Z,67.83
2023-03-16T19:05:25.988Z,68.44
2023-03-16T19:07:53.241Z,68.59
2023-03-16T19:10:35.608Z,68.77
2023-03-16T19:13:02.148Z,69.38
2023-03-16T19:15:32.542Z,69.49
2023-03-16T19:18:00.041Z,70.15
2023-03-16T19:20:31.755Z,70.47
2023-03-16T19:23:06.381Z,70.89
2023-03-16T19:25:41.506Z,71.11
2023-03-16T19:28:14.891Z,71.49
2023-03-16T19:30:41.787Z,71.16
2023-03-16T19:33:19.737Z,71.32
2023-03-16T19:35:51.756Z,71.63
2023-03-16T19:38:20.194Z,71.67
2023-03-16T19:40:52.027Z,71.67
2023-03-16T19:43:20.513Z,71.63
2023-03-16T19:45:48.281Z,71.82
2023-03-16T19:48:22.602Z,71.68
2023-03-16T19:50:50.658Z,72.06
2023-03-16T19:53:19.776Z,72.26
2023-03-16T19:55:48.269Z,72.16
2023-03-16T19:58:38.437Z,72.13
2023-03-16T20:01:06.629Z,71.89
2023-03-16T20:03:36.424Z,72.36
2023-03-16T20:06:02.920Z,72.14
2023-03-16T20:08:29.847Z,72.42
2023-03-16T20:11:12.669Z,72.57
2023-03-16T20:13:39.513Z,72.73
2023-03-16T20:16:06.717Z,72.55
2023-03-16T20:18:36.174Z,72.66
2023-03-16T20:21:02.716Z,73.02
2023-03-16T20:23:30.352Z,72.77
2023-03-16T20:26:02.003Z,72.77
2023-03-16T20:28:38.582Z,72.71
2023-03-16T20:31:08.126Z,72.74
2023-03-16T20:33:35.001Z,72.78
2023-03-16T20:36:01.894Z,72.76
2023-03-16T20:38:28.465Z,73.11
2023-03-16T20:40:54.994Z,72.48
2023-03-16T20:43:30.455Z,72.78
2023-03-16T20:45:59.860Z,72.85
2023-03-16T20:48:27.473Z,72.51
2023-03-16T20:50:56.195Z,72.40
2023-03-16T20:53:23.664Z,72.32
2023-03-16T20:55:51.622Z,72.41
2023-03-16T20:58:25.219Z,72.08
2023-03-16T21:00:57.431Z,72.42
2023-03-16T21:03:27.570Z,72.22
2023-03-16T21:05:58.423Z,71.96
2023-03-16T21:08:27.512Z,71.85
2023-03-16T21:10:56.282Z,72.16
2023-03-16T21:13:33.045Z,71.75
2023-03-16T21:16:01.976Z,72.19
2023-03-16T21:18:29.492Z,72.21
2023-03-16T21:20:56.330Z,72.19
2023-03-16T21:23:23.676Z,72.09
2023-03-16T21:25:56.761Z,72.28
2023-03-16T21:28:25.907Z,72.18
2023-03-16T21:30:54.903Z,72.02
2023-03-16T21:33:32.035Z,72.44
2023-03-16T21:36:00.075Z,72.63
2023-03-16T21:38:31.535Z,72.73
2023-03-16T21:40:59.593Z,72.59
2023-03-16T21:43:26.970Z,72.81
2023-03-16T21:45:55.178Z,72.85
2023-03-16T21:48:24.823Z,73.43
2023-03-16T21:50:53.850Z,73.03
2023-03-16T21:53:34.463Z,73.36
2023-03-16T21:56:01.234Z,73.35
2023-03-16T21:58:27.677Z,73.43
2023-03-16T22:00:55.548Z,73.32
2023-03-16T22:03:37.879Z,73.23
2023-03-16T22:06:14.551Z,73.40
2023-03-16T22:08:41.112Z,73.41
2023-03-16T22:11:15.952Z,73.27
2023-03-16T22:13:42.652Z,73.09
2023-03-16T22:16:15.902Z,73.33
2023-03-16T22:18:43.599Z,73.63
2023-03-16T22:21:32.478Z,73.79
2023-03-16T22:24:00.119Z,73.89
2023-03-16T22:26:28.701Z,74.00
2023-03-16T22:28:56.581Z,74.22
2023-03-16T22:31:31.877Z,74.19
2023-03-16T22:33:59.008Z,74.47
2023-03-16T22:36:25.636Z,74.25
2023-03-16T22:39:01.572Z,74.37
2023-03-16T22:41:29.760Z,74.16
2023-03-16T22:43:57.244Z,74.26
2023-03-16T22:46:26.302Z,74.42
2023-03-16T22:48:54.531Z,74.62
2023-03-16T22:51:26.761Z,74.80
2023-03-16T22:53:57.275Z,74.40
2023-03-16T22:56:24.436Z,74.45
2023-03-16T22:58:55.211Z,74.48
2023-03-16T23:01:34.186Z,74.74
2023-03-16T23:04:01.857Z,74.34
2023-03-16T23:06:31.511Z,74.58
2023-03-16T23:08:58.209Z,74.79
2023-03-16T23:11:31.449Z,74.19
2023-03-16T23:13:58.501Z,74.29
2023-03-16T23:16:36.611Z,74.43
2023-03-16T23:19:09.836Z,74.51
2023-03-16T23:21:42.119Z,74.37
2023-03-16T23:24:08.813Z,74.08
2023-03-16T23:26:35.587Z,74.51
2023-03-16T23:29:02.124Z,74.21
2023-03-16T23:31:29.454Z,74.36
2023-03-16T23:33:56.573Z,74.27
2023-03-16T23:36:24.901Z,74.47
2023-03-16T23:38:51.899Z,74.39
2023-03-16T23:41:22.074Z,74.10
2023-03-16T23:43:49.139Z,74.23
2023-03-16T23:46:19.702Z,74.77
2023-03-16T23:48:48.845Z,74.26
2023-03-16T23:51:21.446Z,74.60
2023-03-16T23:53:49.024Z,74.34
2023-03-16T23:56:15.544Z,74.76
2023-03-16T23:58:42.147Z,74.39
